Time;durP1;ratioP1;P1;durP2;ratioP2;P2;SDS_P1;SDS_P2;PMS_P1;PMS_P2;Temp;Humidity;BMP_temperature;BMP_pressure;BME280_temperature;BME280_humidity;BME280_pressure;Samples;Min_cycle;Max_cycle;Signal;HPM_P1;HPM_P2
2021/04/11 00:00:48;;;;;;;18.42;5.97;;;;;;;1.85;66.98;99925.99;1718873;82;21224;-77
2021/04/11 00:03:20;;;;;;;16.87;5.95;;;;;;;1.81;67.02;99928.16;1718689;82;21636;-77
2021/04/11 00:05:48;;;;;;;14.45;5.58;;;;;;;1.78;67.04;99919.17;1716484;83;21981;-78
2021/04/11 00:08:15;;;;;;;;;;;;;;;1.75;67.08;99923.06;1717461;83;21062;-78
2021/04/11 00:10:47;;;;;;;11.70;5.78;;;;;;;1.69;67.14;99925.25;1723238;82;20237;-78
2021/04/11 00:13:31;;;;;;;16.48;6.28;;;;;;;1.66;67.18;99924.44;1717630;82;21639;-78
2021/04/11 00:15:59;;;;;;;19.85;6.25;;;;;;;1.62;67.21;99922.73;1720093;82;21575;-78
2021/04/11 00:18:26;;;;;;;;;;;;;;;1.59;67.26;99913.75;1718754;83;21239;-77
2021/04/11 00:20:55;;;;;;;17.17;5.42;;;;;;;1.56;67.38;99914.19;1719360;82;20666;-77
2021/04/11 00:23:24;;;;;;;16.30;6.10;;;;;;;1.53;67.34;99912.92;1722835;82;21697;-78
2021/04/11 00:25:52;;;;;;;14.28;4.85;;;;;;;1.53;67.27;99914.66;1717939;81;21629;-77
2021/04/11 00:28:20;;;;;;;11.50;4.67;;;;;;;1.53;67.20;99907.78;1689338;83;21231;-77
2021/04/11 00:30:47;;;;;;;16.37;5.55;;;;;;;1.52;67.20;99904.80;1655767;85;22125;-76
2021/04/11 00:33:35;;;;;;;9.45;4.03;;;;;;;1.54;67.13;99902.20;1664890;84;21237;-77
2021/04/11 00:36:10;;;;;;;10.32;4.10;;;;;;;1.52;66.99;99902.22;1684396;83;21210;-78
2021/04/11 00:38:37;;;;;;;10.72;3.25;;;;;;;1.51;66.89;99895.37;1655734;86;21587;-78
2021/04/11 00:41:24;;;;;;;10.23;3.92;;;;;;;1.49;66.81;99891.95;1665902;84;21684;-77
2021/04/11 00:43:51;;;;;;;;;;;;;;;1.43;66.69;99892.01;1680268;84;21289;-77
2021/04/11 00:46:54;;;;;;;8.40;3.10;;;;;;;1.34;66.62;99894.22;1687912;83;20678;-77
2021/04/11 00:49:46;;;;;;;11.93;3.62;;;;;;;1.27;66.62;99898.97;1690121;83;21180;-78
2021/04/11 00:52:15;;;;;;;8.68;2.92;;;;;;;1.19;66.57;99893.45;1688598;83;21210;-78
2021/04/11 00:54:43;;;;;;;8.90;2.40;;;;;;;1.13;66.36;99899.93;1694609;83;21239;-78
2021/04/11 00:57:13;;;;;;;5.30;2.10;;;;;;;1.09;66.28;99897.78;1687621;84;21230;-79
2021/04/11 00:59:43;;;;;;;5.53;2.10;;;;;;;1.06;66.10;99893.95;1682920;83;21244;-78
2021/04/11 01:02:10;;;;;;;4.28;1.55;;;;;;;1.02;65.90;99897.41;1688768;84;21231;-78
2021/04/11 01:04:37;;;;;;;;;;;;;;;0.99;65.76;99901.29;1692824;83;21658;-76
2021/04/11 01:07:11;;;;;;;4.80;1.80;;;;;;;0.97;65.78;99897.43;1691726;84;20281;-76
2021/04/11 01:09:42;;;;;;;5.83;1.65;;;;;;;0.97;65.72;99896.58;1685959;83;21447;-76
2021/04/11 01:12:14;;;;;;;3.33;1.45;;;;;;;0.96;65.67;99894.88;1684455;84;21280;-77
2021/04/11 01:14:41;;;;;;;4.40;1.85;;;;;;;0.96;65.60;99891.88;1689673;84;21145;-77
2021/04/11 01:17:15;;;;;;;3.40;1.85;;;;;;;0.95;65.54;99895.73;1686774;84;21208;-77
2021/04/11 01:19:43;;;;;;;5.00;1.50;;;;;;;0.94;65.41;99891.02;1687410;84;21224;-77
2021/04/11 01:22:39;;;;;;;5.08;1.60;;;;;;;0.92;65.38;99877.31;1689833;83;21632;-77
2021/04/11 01:25:18;;;;;;;7.15;2.15;;;;;;;0.90;65.28;99877.77;1684806;84;21314;-77
2021/04/11 01:27:46;;;;;;;6.62;1.52;;;;;;;0.88;65.17;99882.91;1690134;84;21578;-77
2021/04/11 01:33:08;;;;;;;6.10;2.05;;;;;;;0.85;64.92;99874.37;1631408;87;20236;-77
2021/04/11 01:35:35;;;;;;;4.15;1.62;;;;;;;0.86;64.90;99873.49;1650638;85;21641;-77
2021/04/11 01:38:06;;;;;;;3.62;1.42;;;;;;;0.89;64.85;99881.19;1631714;87;21252;-77
2021/04/11 01:40:58;;;;;;;5.83;1.47;;;;;;;0.91;64.70;99880.76;1636037;86;21292;-77
2021/04/11 01:43:26;;;;;;;2.98;1.35;;;;;;;0.94;64.66;99884.59;1630695;85;21271;-77
2021/04/11 01:45:55;;;;;;;4.35;1.75;;;;;;;0.98;64.60;99874.73;1656665;85;21210;-78
2021/04/11 01:48:57;;;;;;;4.40;1.65;;;;;;;1.07;64.39;99878.52;1824710;77;22859;-76
2021/04/11 01:51:38;;;;;;;7.62;2.40;;;;;;;1.05;64.48;99881.97;1801003;78;21215;-77
2021/04/11 01:54:12;;;;;;;7.20;1.95;;;;;;;1.04;64.57;99878.55;1775011;78;21203;-77
2021/04/11 01:56:44;;;;;;;4.47;1.98;;;;;;;1.06;64.78;99879.37;1797141;78;21079;-77
2021/04/11 01:59:14;;;;;;;9.43;2.75;;;;;;;1.07;64.74;99870.81;1802162;78;21036;-77
2021/04/11 02:01:41;;;;;;;8.20;2.83;;;;;;;1.09;64.73;99867.80;1798918;78;21557;-78
2021/04/11 02:04:11;;;;;;;8.33;2.70;;;;;;;1.16;65.08;99869.05;1796038;78;21636;-77
2021/04/11 02:06:49;;;;;;;9.20;3.15;;;;;;;1.22;65.30;99862.13;1803818;78;22165;-77
2021/04/11 02:09:23;;;;;;;11.33;3.08;;;;;;;1.31;65.56;99861.20;1799915;78;20986;-77
2021/04/11 02:11:54;;;;;;;9.67;3.63;;;;;;;1.43;65.79;99865.40;1803564;77;21704;-77
2021/04/11 02:14:22;;;;;;;9.13;2.70;;;;;;;1.54;66.16;99855.47;1804517;78;21205;-77
2021/04/11 02:16:49;;;;;;;13.32;3.33;;;;;;;1.64;66.47;99859.23;1770249;78;21209;-77
2021/04/11 02:19:21;;;;;;;10.10;2.85;;;;;;;1.71;66.34;99853.15;1797479;78;22602;-77
2021/04/11 02:21:53;;;;;;;10.80;3.12;;;;;;;1.80;66.72;99860.81;1800071;78;21038;-78
2021/04/11 02:24:20;;;;;;;10.43;2.70;;;;;;;1.86;66.77;99850.45;1795079;78;21077;-78
2021/04/11 02:26:47;;;;;;;7.35;2.08;;;;;;;1.87;66.85;99839.27;1799218;78;21590;-77
2021/04/11 02:29:20;;;;;;;10.00;2.98;;;;;;;1.98;67.33;99842.58;1803526;78;21270;-78
2021/04/11 02:31:46;;;;;;;11.55;2.40;;;;;;;2.07;67.85;99847.22;1796299;78;21159;-78
2021/04/11 02:34:24;;;;;;;10.55;3.10;;;;;;;2.12;67.46;99854.47;1798014;78;21112;-77
2021/04/11 02:36:57;;;;;;;;;;;;;;;2.13;67.52;99848.44;1799473;78;21155;-77
2021/04/11 02:39:37;;;;;;;12.85;3.33;;;;;;;2.18;67.80;99842.37;1824205;77;22392;-78
2021/04/11 02:42:09;;;;;;;20.00;3.80;;;;;;;2.18;67.89;99846.67;1796429;78;21198;-77
2021/04/11 02:44:42;;;;;;;8.83;3.17;;;;;;;2.19;67.75;99849.69;1800437;77;22371;-77
2021/04/11 02:47:12;;;;;;;11.60;3.08;;;;;;;2.16;67.73;99848.44;1795468;78;21167;-77
2021/04/11 02:49:41;;;;;;;12.40;3.15;;;;;;;2.12;67.87;99848.03;1794550;78;21080;-77
2021/04/11 02:52:31;;;;;;;13.10;3.25;;;;;;;2.10;67.84;99833.02;1799558;78;21047;-78
2021/04/11 02:54:59;;;;;;;11.28;3.27;;;;;;;2.09;68.71;99826.17;1798646;78;21066;-76
2021/04/11 02:57:30;;;;;;;8.68;3.70;;;;;;;2.12;68.66;99828.72;1798795;78;21375;-76
2021/04/11 02:59:57;;;;;;;10.08;3.47;;;;;;;2.15;68.78;99835.12;1795017;78;21040;-77
2021/04/11 03:02:24;;;;;;;12.30;3.62;;;;;;;2.16;68.47;99843.28;1792905;78;21786;-77
2021/04/11 03:04:56;;;;;;;6.72;3.27;;;;;;;2.19;68.32;99836.80;1797074;78;21156;-76
2021/04/11 03:07:31;;;;;;;10.23;3.65;;;;;;;2.20;68.45;99834.19;1801178;78;22347;-77
2021/04/11 03:10:06;;;;;;;11.43;3.12;;;;;;;2.24;68.51;99831.14;1798866;78;21277;-77
2021/04/11 03:12:33;;;;;;;13.28;4.37;;;;;;;2.30;68.83;99828.52;1795865;77;21195;-76
2021/04/11 03:15:01;;;;;;;11.88;3.60;;;;;;;2.34;69.28;99837.05;1799789;78;21110;-77
2021/04/11 03:17:30;;;;;;;12.13;4.03;;;;;;;2.36;69.23;99834.88;1803232;77;21163;-76
2021/04/11 03:20:11;;;;;;;15.85;4.40;;;;;;;2.39;69.31;99829.69;1797308;78;21162;-77
2021/04/11 03:22:39;;;;;;;8.25;3.60;;;;;;;2.41;69.32;99818.93;1796365;78;21196;-77
2021/04/11 03:25:09;;;;;;;9.43;3.70;;;;;;;2.46;69.35;99819.73;1796152;78;21037;-77
2021/04/11 03:27:49;;;;;;;11.90;4.12;;;;;;;2.49;69.38;99796.91;1794996;78;21201;-77
2021/04/11 03:30:30;;;;;;;13.80;4.15;;;;;;;2.54;69.43;99798.14;1793842;77;21168;-77
2021/04/11 03:33:05;;;;;;;11.03;3.98;;;;;;;2.57;69.78;99800.67;1798572;78;21210;-77
2021/04/11 03:35:36;;;;;;;11.85;3.17;;;;;;;2.59;69.96;99798.49;1779721;78;21278;-77
2021/04/11 03:38:07;;;;;;;7.87;2.90;;;;;;;2.61;69.79;99792.05;1793980;78;21226;-77
2021/04/11 03:40:38;;;;;;;15.08;3.72;;;;;;;2.68;70.00;99794.94;1799221;77;21234;-77
2021/04/11 03:43:15;;;;;;;9.83;2.80;;;;;;;2.74;69.84;99801.29;1798530;77;21044;-78
2021/04/11 03:45:43;;;;;;;9.85;2.92;;;;;;;2.77;69.89;99801.23;1800733;77;21121;-77
2021/04/11 03:48:25;;;;;;;8.43;2.70;;;;;;;2.80;70.03;99793.49;1796981;77;21577;-77
2021/04/11 03:50:57;;;;;;;8.58;2.47;;;;;;;2.84;70.01;99800.30;1797925;77;21470;-77
2021/04/11 03:53:35;;;;;;;9.28;2.98;;;;;;;2.85;70.03;99796.83;1791207;78;21225;-76
2021/04/11 03:56:07;;;;;;;8.38;3.02;;;;;;;2.86;69.94;99793.39;1794958;78;21212;-75
2021/04/11 03:58:43;;;;;;;8.48;2.87;;;;;;;2.91;70.02;99801.92;1794315;78;21182;-77
2021/04/11 04:01:22;;;;;;;7.83;2.67;;;;;;;2.97;70.22;99803.97;1841204;75;22457;-76
2021/04/11 04:03:52;;;;;;;12.20;3.17;;;;;;;2.93;70.17;99797.17;1814368;78;21105;-77
2021/04/11 04:06:27;;;;;;;7.85;2.58;;;;;;;2.94;70.10;99797.57;1810085;78;21410;-77
2021/04/11 04:08:54;;;;;;;7.20;2.83;;;;;;;2.96;70.13;99782.94;1749386;80;21082;-78
2021/04/11 04:11:55;;;;;;;9.20;2.90;;;;;;;2.99;70.12;99789.33;1747996;80;21196;-77
2021/04/11 04:14:45;;;;;;;7.58;2.85;;;;;;;3.00;70.06;99797.50;1771731;80;21265;-78
2021/04/11 04:17:44;;;;;;;7.55;2.40;;;;;;;3.01;70.08;99801.78;1780551;79;21551;-77
2021/04/11 04:20:25;;;;;;;11.22;2.87;;;;;;;3.00;70.11;99795.77;1776711;78;21257;-77
2021/04/11 04:23:17;;;;;;;10.05;2.98;;;;;;;3.02;70.12;99795.73;1751731;80;21095;-77
2021/04/11 04:25:53;;;;;;;9.03;2.83;;;;;;;3.03;70.09;99802.61;1660001;84;21263;-76
2021/04/11 04:28:49;;;;;;;10.45;2.70;;;;;;;3.02;70.04;99802.18;1720064;81;21308;-77
2021/04/11 04:31:36;;;;;;;5.80;2.57;;;;;;;3.02;70.17;99794.00;1726592;81;21591;-77
2021/04/11 04:34:32;;;;;;;14.65;3.58;;;;;;;3.02;70.13;99804.76;1714456;81;22595;-76
2021/04/11 04:37:24;;;;;;;11.55;3.62;;;;;;;3.06;70.18;99801.27;1832319;77;22399;-77
2021/04/11 04:40:05;;;;;;;8.35;2.80;;;;;;;3.02;70.30;99816.37;1747770;80;21065;-76
2021/04/11 04:42:49;;;;;;;8.75;2.60;;;;;;;3.01;70.22;99812.09;1740769;80;21215;-77
2021/04/11 04:45:45;;;;;;;8.73;2.67;;;;;;;3.04;70.22;99813.34;1741057;81;21172;-76
2021/04/11 04:48:52;;;;;;;8.13;2.98;;;;;;;3.03;70.38;99807.77;1740938;81;20993;-78
2021/04/11 04:51:27;;;;;;;11.12;3.10;;;;;;;3.04;70.37;99806.88;1735289;81;21372;-77
2021/04/11 04:54:30;;;;;;;9.05;2.65;;;;;;;3.05;70.40;99795.68;1735328;81;21199;-77
2021/04/11 04:57:02;;;;;;;10.53;3.00;;;;;;;3.08;70.39;99785.31;1739162;80;21218;-77
2021/04/11 04:59:35;;;;;;;8.65;2.70;;;;;;;3.10;70.55;99791.30;1739024;80;21154;-77
2021/04/11 05:02:10;;;;;;;10.28;2.15;;;;;;;3.10;70.61;99783.56;1738333;80;21053;-77
2021/04/11 05:04:41;;;;;;;8.08;2.40;;;;;;;3.12;70.53;99774.93;1738564;80;21192;-77
2021/04/11 05:07:13;;;;;;;8.73;2.20;;;;;;;3.17;70.45;99759.38;1741591;81;21699;-78
2021/04/11 05:10:05;;;;;;;12.90;3.60;;;;;;;3.22;70.46;99766.62;1742117;81;21432;-77
2021/04/11 05:12:40;;;;;;;11.15;3.40;;;;;;;3.25;70.45;99762.69;1746289;81;21227;-76
2021/04/11 05:15:15;;;;;;;8.73;2.60;;;;;;;3.29;70.50;99764.33;1744104;80;21196;-77
2021/04/11 05:17:59;;;;;;;11.73;4.42;;;;;;;3.35;70.56;99773.25;1743399;81;21148;-76
2021/04/11 05:20:30;;;;;;;11.35;3.83;;;;;;;3.41;70.51;99791.66;1746610;81;21132;-76
2021/04/11 05:23:18;;;;;;;10.53;3.58;;;;;;;3.42;70.50;99788.63;1742859;81;21720;-76
2021/04/11 05:26:10;;;;;;;12.00;3.33;;;;;;;3.45;70.51;99776.98;1710782;83;21278;-76
2021/04/11 05:28:54;;;;;;;9.83;3.62;;;;;;;3.51;70.53;99771.71;1704935;83;21221;-77
2021/04/11 05:31:28;;;;;;;6.95;2.87;;;;;;;3.55;70.63;99773.34;1704192;83;21272;-77
2021/04/11 05:34:10;;;;;;;9.78;2.72;;;;;;;3.63;70.55;99771.48;1835251;76;22041;-76
2021/04/11 05:37:03;;;;;;;10.25;2.85;;;;;;;3.62;70.59;99768.50;1747572;80;21210;-77
2021/04/11 05:39:45;;;;;;;12.45;3.20;;;;;;;3.68;70.64;99776.12;1735723;82;21470;-77
2021/04/11 05:42:32;;;;;;;9.75;3.05;;;;;;;3.72;70.65;99772.59;1748534;81;20977;-77
2021/04/11 05:45:16;;;;;;;7.35;3.20;;;;;;;3.77;70.63;99772.52;1746684;81;21130;-75
2021/04/11 05:48:25;;;;;;;10.70;3.55;;;;;;;3.78;70.63;99769.92;1745303;80;21686;-77
2021/04/11 05:51:09;;;;;;;8.50;3.10;;;;;;;3.80;70.66;99768.58;1776912;78;21161;-77
2021/04/11 05:53:50;;;;;;;10.35;3.17;;;;;;;3.83;70.75;99763.36;1775018;78;21208;-78
2021/04/11 05:56:28;;;;;;;11.75;4.17;;;;;;;3.84;70.77;99767.66;1777156;80;21655;-78
2021/04/11 05:59:03;;;;;;;10.15;2.98;;;;;;;3.89;70.89;99753.34;1774012;78;21058;-78
2021/04/11 06:01:43;;;;;;;9.73;2.87;;;;;;;4.02;70.87;99761.27;1745118;80;21670;-77
2021/04/11 06:04:16;;;;;;;8.25;3.10;;;;;;;4.13;70.86;99756.74;1748168;80;21120;-77
2021/04/11 06:06:53;;;;;;;10.93;3.55;;;;;;;4.30;70.86;99749.08;1745041;81;23183;-76
2021/04/11 06:09:34;;;;;;;9.45;3.10;;;;;;;4.37;70.79;99748.05;1769964;80;21196;-77
2021/04/11 06:12:07;;;;;;;9.68;3.00;;;;;;;4.45;70.72;99741.86;1774702;79;21235;-76
2021/04/11 06:15:00;;;;;;;11.73;3.30;;;;;;;4.48;70.76;99737.03;1629110;86;21266;-77
2021/04/11 06:17:29;;;;;;;13.13;4.37;;;;;;;4.55;70.74;99715.34;1693843;83;21202;-77
2021/04/11 06:19:57;;;;;;;12.60;4.45;;;;;;;4.58;70.76;99719.14;1696990;83;21759;-78
2021/04/11 06:22:35;;;;;;;8.20;4.00;;;;;;;4.56;70.67;99711.86;1692450;83;21276;-77
2021/04/11 06:25:19;;;;;;;11.50;3.58;;;;;;;4.61;70.79;99717.78;1803791;77;22065;-77
2021/04/11 06:28:05;;;;;;;9.48;3.95;;;;;;;4.58;70.79;99712.69;1770497;80;21659;-76
2021/04/11 06:30:40;;;;;;;12.35;4.10;;;;;;;4.67;70.88;99707.29;1770256;80;21487;-77
2021/04/11 06:33:21;;;;;;;8.15;3.90;;;;;;;4.73;70.78;99702.86;1771905;80;21162;-77
2021/04/11 06:35:55;;;;;;;12.90;4.75;;;;;;;4.78;70.82;99703.61;1769960;80;21179;-73
2021/04/11 06:38:36;;;;;;;9.88;4.60;;;;;;;4.83;70.81;99694.00;1768568;80;21176;-75
2021/04/11 06:41:34;;;;;;;9.98;4.17;;;;;;;4.89;70.73;99691.27;1736584;81;21004;-76
2021/04/11 06:44:40;;;;;;;8.93;4.03;;;;;;;4.98;70.78;99691.48;1722586;81;21772;-77
2021/04/11 06:47:53;;;;;;;14.20;4.70;;;;;;;5.01;70.66;99686.22;1714425;81;21064;-74
2021/04/11 06:50:57;;;;;;;14.95;4.80;;;;;;;5.19;70.75;99687.06;1718886;81;21589;-75
2021/04/11 06:54:04;;;;;;;10.93;4.50;;;;;;;5.35;70.62;99695.29;1732716;80;21093;-74
2021/04/11 06:57:00;;;;;;;11.78;4.90;;;;;;;5.50;70.28;99696.16;1780428;77;28431;-78
2021/04/11 06:59:44;;;;;;;14.90;5.58;;;;;;;5.51;70.21;99705.62;1767780;79;21132;-76
2021/04/11 07:02:52;;;;;;;9.28;4.40;;;;;;;5.57;70.46;99701.59;1770194;79;22085;-76
2021/04/11 07:05:27;;;;;;;15.15;5.30;;;;;;;5.66;70.07;99694.02;1760135;80;21132;-77
2021/04/11 07:08:48;;;;;;;13.20;5.92;;;;;;;5.66;70.18;99678.89;1769556;79;21055;-78
2021/04/11 07:11:53;;;;;;;10.58;4.92;;;;;;;5.68;70.22;99675.81;1771537;79;21102;-78
2021/04/11 07:14:53;;;;;;;14.93;5.80;;;;;;;5.61;69.90;99676.00;1765075;80;21201;-77
2021/04/11 07:17:45;;;;;;;12.88;6.12;;;;;;;5.64;70.17;99688.47;1708877;82;21294;-75
2021/04/11 07:20:43;;;;;;;14.87;5.90;;;;;;;5.82;70.25;99687.94;1711519;81;21286;-77
2021/04/11 07:23:55;;;;;;;14.23;6.12;;;;;;;6.04;69.87;99682.56;1824692;77;23062;-75
2021/04/11 07:26:50;;;;;;;17.45;9.90;;;;;;;6.10;70.09;99688.47;1797940;78;22283;-74
2021/04/11 07:29:35;;;;;;;18.25;7.35;;;;;;;6.34;69.93;99689.04;1796189;78;21206;-73
2021/04/11 07:32:45;;;;;;;14.23;6.65;;;;;;;6.55;70.05;99684.08;1800465;78;21678;-74
2021/04/11 07:35:24;;;;;;;12.35;6.05;;;;;;;6.71;69.93;99691.33;1797476;78;21057;-73
2021/04/11 07:38:36;;;;;;;17.20;7.10;;;;;;;6.72;69.27;99680.07;1795095;78;21112;-73
2021/04/11 07:41:34;;;;;;;16.37;7.67;;;;;;;6.80;69.51;99695.38;1796746;78;21021;-74
2021/04/11 07:44:43;;;;;;;19.65;7.35;;;;;;;6.99;69.50;99676.61;1795827;77;21150;-74
2021/04/11 07:47:51;;;;;;;17.98;7.15;;;;;;;7.15;69.22;99672.61;1798433;78;21199;-75
2021/04/11 07:50:48;;;;;;;13.85;7.37;;;;;;;7.28;69.11;99679.09;1745636;80;21162;-76
2021/04/11 07:53:49;;;;;;;14.28;8.05;;;;;;;7.48;69.24;99680.11;1743014;80;21283;-75
2021/04/11 07:56:42;;;;;;;20.45;9.73;;;;;;;7.81;68.67;99681.53;1830084;77;22372;-77
2021/04/11 07:59:45;;;;;;;15.63;8.03;;;;;;;7.95;68.65;99678.39;1794989;77;21025;-75
2021/04/11 08:02:47;;;;;;;16.05;8.15;;;;;;;8.11;67.98;99672.17;1799958;78;21185;-76
2021/04/11 08:05:22;;;;;;;13.35;7.70;;;;;;;8.04;67.79;99670.27;1801521;78;21073;-77
2021/04/11 08:08:32;;;;;;;16.50;7.85;;;;;;;8.11;67.45;99669.58;1763462;78;21206;-76
2021/04/11 08:11:07;;;;;;;13.50;7.90;;;;;;;8.05;67.13;99665.91;1801944;78;21018;-75
2021/04/11 08:14:04;;;;;;;12.20;8.03;;;;;;;8.08;67.74;99665.80;1795229;78;21149;-75
2021/04/11 08:16:58;;;;;;;19.75;8.70;;;;;;;8.09;67.23;99651.88;1797012;78;21605;-78
2021/04/11 08:20:03;;;;;;;15.53;7.97;;;;;;;8.15;67.41;99646.47;1799076;78;21068;-77
2021/04/11 08:23:12;;;;;;;15.08;8.85;;;;;;;8.34;66.90;99640.52;1798427;77;21078;-76
2021/04/11 08:25:54;;;;;;;14.83;8.28;;;;;;;8.40;66.65;99642.91;1798676;78;21245;-76
2021/04/11 08:28:53;;;;;;;13.53;8.85;;;;;;;8.42;66.72;99629.40;1804307;78;21557;-77
2021/04/11 08:31:32;;;;;;;16.30;8.70;;;;;;;8.54;66.45;99630.20;1752367;80;21221;-76
2021/04/11 08:34:04;;;;;;;13.75;9.03;;;;;;;8.69;66.60;99637.40;1757236;80;21032;-78
2021/04/11 08:37:17;;;;;;;17.95;9.18;;;;;;;8.83;66.39;99630.78;1758264;80;21311;-76
2021/04/11 08:40:04;;;;;;;14.10;8.23;;;;;;;8.93;66.73;99630.34;1754012;80;21204;-75
2021/04/11 08:43:06;;;;;;;16.10;9.05;;;;;;;9.09;66.49;99630.52;1754690;79;21271;-76
2021/04/11 08:45:47;;;;;;;14.03;8.68;;;;;;;9.11;65.96;99628.70;1752782;80;21268;-75
2021/04/11 08:48:30;;;;;;;15.25;8.60;;;;;;;9.10;65.94;99617.91;1818478;77;22388;-74
2021/04/11 08:51:30;;;;;;;14.55;8.53;;;;;;;9.02;65.82;99630.84;1801610;78;21558;-75
2021/04/11 08:54:13;;;;;;;16.40;9.45;;;;;;;8.89;65.54;99628.77;1802379;78;21308;-75
2021/04/11 08:56:59;;;;;;;15.80;10.08;;;;;;;8.92;65.95;99630.39;1799831;78;21064;-76
2021/04/11 08:59:55;;;;;;;15.93;9.23;;;;;;;8.96;65.58;99621.52;1799790;78;21037;-76
2021/04/11 09:02:36;;;;;;;16.87;9.35;;;;;;;8.97;65.78;99623.23;1800426;78;21058;-75
2021/04/11 09:05:34;;;;;;;16.95;9.53;;;;;;;8.97;65.51;99615.42;1797814;78;20990;-74
2021/04/11 09:08:18;;;;;;;15.95;10.23;;;;;;;8.89;65.51;99599.28;1803638;78;21642;-74
2021/04/11 09:10:58;;;;;;;14.80;8.80;;;;;;;8.79;65.64;99597.96;1802358;77;21064;-76
2021/04/11 09:13:46;;;;;;;13.35;8.83;;;;;;;8.88;65.38;99593.69;1799127;78;21562;-75
2021/04/11 09:16:18;;;;;;;20.50;10.70;;;;;;;8.95;65.55;99596.41;1799726;78;21161;-75
2021/04/11 09:18:59;;;;;;;18.00;9.38;;;;;;;9.01;65.27;99590.94;1799235;78;21094;-74
2021/04/11 09:21:59;;;;;;;18.80;10.55;;;;;;;9.12;65.65;99584.80;1801418;78;21379;-74
2021/04/11 09:24:49;;;;;;;14.38;9.30;;;;;;;9.37;65.82;99588.95;1765397;80;21048;-75
2021/04/11 09:27:38;;;;;;;19.00;10.40;;;;;;;9.68;65.47;99582.35;1766967;80;21227;-75
2021/04/11 09:30:30;;;;;;;18.07;9.73;;;;;;;9.96;65.78;99587.97;1742096;80;21102;-74
2021/04/11 09:33:03;;;;;;;14.90;9.35;;;;;;;10.25;65.44;99587.05;1716104;81;21215;-75
2021/04/11 09:35:44;;;;;;;15.05;8.80;;;;;;;10.47;64.87;99590.37;1736481;81;23742;-74
2021/04/11 09:38:48;;;;;;;15.35;10.28;;;;;;;10.60;64.84;99587.14;1738498;81;21208;-74
2021/04/11 09:41:56;;;;;;;13.15;10.08;;;;;;;10.86;65.12;99564.47;1749516;80;21150;-74
2021/04/11 09:44:50;;;;;;;12.33;7.92;;;;;;;11.26;64.55;99557.20;1741105;80;21009;-74
2021/04/11 09:47:25;;;;;;;14.33;10.13;;;;;;;11.36;64.23;99550.54;1738900;80;21157;-74
2021/04/11 09:50:21;;;;;;;17.27;9.40;;;;;;;11.48;64.39;99548.20;1750226;81;21477;-74
2021/04/11 09:53:43;;;;;;;13.03;9.05;;;;;;;11.42;63.00;99538.44;1747297;80;21282;-75
2021/04/11 09:56:55;;;;;;;11.55;8.70;;;;;;;11.15;62.73;99546.00;1747228;80;21155;-75
2021/04/11 09:59:50;;;;;;;21.52;11.83;;;;;;;11.12;63.81;99538.80;1750940;80;21593;-76
2021/04/11 10:02:57;;;;;;;13.15;8.58;;;;;;;11.17;63.51;99532.40;1749500;80;21713;-76
2021/04/11 10:05:47;;;;;;;13.78;9.05;;;;;;;11.21;63.40;99539.61;1756319;79;21203;-75
2021/04/11 10:08:35;;;;;;;14.78;9.73;;;;;;;11.38;63.33;99530.40;1736505;80;21059;-76
2021/04/11 10:14:44;;;;;;;15.85;8.75;;;;;;;12.09;62.74;99523.92;1741384;81;21603;-73
2021/04/11 10:18:04;;;;;;;17.25;9.83;;;;;;;12.41;62.52;99514.71;1706842;82;21752;-72
2021/04/11 10:21:02;;;;;;;12.95;8.15;;;;;;;12.59;61.93;99508.38;1720435;81;21625;-74
2021/04/11 10:24:05;;;;;;;12.00;8.30;;;;;;;12.63;61.63;99505.97;1736558;80;21228;-75
2021/04/11 10:26:52;;;;;;;10.93;8.50;;;;;;;12.44;60.52;99500.13;1672724;83;21202;-75
2021/04/11 10:29:25;;;;;;;14.90;9.03;;;;;;;12.38;61.86;99497.84;1668679;84;21280;-75
2021/04/11 10:31:57;;;;;;;12.80;8.60;;;;;;;12.42;61.16;99495.44;1646258;84;21192;-75
2021/04/11 10:34:57;;;;;;;13.15;8.98;;;;;;;12.36;61.05;99494.49;1647303;85;21263;-75
2021/04/11 10:37:40;;;;;;;14.33;9.40;;;;;;;12.47;61.20;99488.16;1642201;84;21270;-75
2021/04/11 10:40:21;;;;;;;16.60;9.10;;;;;;;12.42;59.97;99478.42;1650930;85;21726;-75
2021/04/11 10:43:12;;;;;;;14.10;9.65;;;;;;;12.34;60.46;99484.09;1647989;85;21253;-76
2021/04/11 10:46:02;;;;;;;16.02;9.50;;;;;;;12.50;61.13;99482.74;1661934;85;21233;-76
2021/04/11 10:49:07;;;;;;;15.68;9.80;;;;;;;12.54;60.11;99474.59;1858675;74;22812;-74
2021/04/11 10:52:16;;;;;;;14.33;9.50;;;;;;;12.59;60.60;99465.64;1835063;77;21041;-76
2021/04/11 10:55:04;;;;;;;13.30;9.30;;;;;;;12.79;60.53;99464.44;1835902;76;21405;-74
2021/04/11 10:57:58;;;;;;;11.88;8.45;;;;;;;13.00;60.22;99461.83;1836836;77;21009;-74
2021/04/11 11:00:47;;;;;;;14.75;9.50;;;;;;;12.89;59.33;99461.17;1832948;77;21008;-77
2021/04/11 11:03:31;;;;;;;12.00;9.00;;;;;;;12.80;58.93;99453.02;1836756;77;21052;-77
2021/04/11 11:06:54;;;;;;;17.90;11.10;;;;;;;12.81;59.08;99465.20;1783421;78;21607;-73
2021/04/11 11:09:49;;;;;;;12.88;8.95;;;;;;;12.99;59.35;99455.75;1774662;78;21203;-71
2021/04/11 11:13:00;;;;;;;24.07;10.60;;;;;;;13.37;59.68;99455.64;1776843;78;21144;-71
2021/04/11 11:15:38;;;;;;;10.48;8.63;;;;;;;13.57;59.61;99446.03;1796201;78;21074;-73
2021/04/11 11:18:19;;;;;;;13.60;9.58;;;;;;;13.79;59.79;99447.28;1797633;78;21162;-72
2021/04/11 11:21:18;;;;;;;14.20;9.63;;;;;;;13.73;58.12;99443.75;1799307;78;21155;-73
2021/04/11 11:24:08;;;;;;;14.87;10.53;;;;;;;13.53;58.52;99441.93;1778530;79;21200;-73
2021/04/11 11:27:05;;;;;;;13.32;9.43;;;;;;;13.12;58.09;99441.41;1778317;79;21211;-73
2021/04/11 11:30:11;;;;;;;14.73;9.20;;;;;;;13.04;58.88;99443.66;1775358;79;21198;-73
2021/04/11 11:33:18;;;;;;;15.80;10.63;;;;;;;12.95;58.39;99441.61;1775967;79;21184;-74
2021/04/11 11:36:34;;;;;;;13.55;9.83;;;;;;;12.76;58.89;99450.58;1775467;79;21207;-75
2021/04/11 11:39:30;;;;;;;15.40;9.95;;;;;;;12.84;58.74;99432.25;1797844;78;22812;-74
2021/04/11 11:42:30;;;;;;;18.60;10.70;;;;;;;12.83;58.30;99429.27;1770046;79;21703;-76
2021/04/11 11:45:25;;;;;;;14.13;9.75;;;;;;;12.80;58.74;99429.44;1771828;79;21409;-74
2021/04/11 11:48:15;;;;;;;14.55;10.50;;;;;;;12.80;58.54;99425.50;1769464;80;21224;-75
2021/04/11 11:50:56;;;;;;;15.98;9.98;;;;;;;12.90;59.01;99417.46;1773097;80;21641;-75
2021/04/11 11:53:38;;;;;;;18.32;10.88;;;;;;;13.01;59.04;99417.64;1773799;80;21191;-75
2021/04/11 11:56:20;;;;;;;17.80;11.25;;;;;;;13.14;58.84;99414.63;1774356;79;20997;-75
2021/04/11 11:58:57;;;;;;;14.53;10.32;;;;;;;13.21;58.91;99413.30;1763940;80;22358;-75
2021/04/11 12:01:32;;;;;;;17.15;10.35;;;;;;;13.27;58.28;99413.88;1776250;79;22145;-75
2021/04/11 12:04:27;;;;;;;19.60;11.22;;;;;;;13.48;58.97;99409.91;1769676;79;21207;-75
2021/04/11 12:06:58;;;;;;;15.10;10.70;;;;;;;13.80;58.77;99391.22;1767334;79;21661;-75
2021/04/11 12:09:41;;;;;;;20.52;11.43;;;;;;;14.02;57.98;99398.05;1767277;80;21065;-76
2021/04/11 12:12:22;;;;;;;16.67;10.80;;;;;;;14.10;58.05;99390.50;1767206;79;22353;-75
2021/04/11 12:15:12;;;;;;;18.37;10.82;;;;;;;14.02;57.54;99392.79;1773269;80;21231;-77
2021/04/11 12:18:08;;;;;;;24.23;10.93;;;;;;;13.96;57.47;99390.58;1763729;80;21641;-75
2021/04/11 12:20:45;;;;;;;13.85;10.40;;;;;;;13.94;57.74;99387.21;1775322;80;21807;-76
2021/04/11 12:23:34;;;;;;;16.50;11.65;;;;;;;14.09;56.90;99383.58;1777061;80;21237;-75
2021/04/11 12:26:12;;;;;;;16.90;11.53;;;;;;;14.14;56.84;99377.16;1770781;79;21233;-75
2021/04/11 12:28:41;;;;;;;17.23;11.38;;;;;;;14.14;56.73;99374.53;1742227;81;21320;-75
2021/04/11 12:31:31;;;;;;;18.62;11.10;;;;;;;14.21;57.52;99375.81;1735134;81;21580;-78
2021/04/11 12:34:36;;;;;;;19.35;12.88;;;;;;;14.44;57.47;99372.45;1830188;77;22216;-73
2021/04/11 12:37:20;;;;;;;19.65;12.50;;;;;;;14.53;57.63;99369.20;1809538;78;21355;-75
2021/04/11 12:39:47;;;;;;;16.02;11.30;;;;;;;14.70;56.96;99351.44;1780894;78;21198;-74
2021/04/11 12:42:35;;;;;;;15.55;11.43;;;;;;;14.80;56.85;99352.48;1805031;77;21722;-74
2021/04/11 12:45:30;;;;;;;15.85;10.88;;;;;;;14.84;56.71;99348.67;1808472;77;21854;-74
2021/04/11 12:48:30;;;;;;;18.65;11.35;;;;;;;14.90;57.26;99350.02;1807259;78;21037;-75
2021/04/11 12:51:40;;;;;;;17.95;12.03;;;;;;;15.11;57.09;99339.78;1780373;78;21044;-74
2021/04/11 12:54:38;;;;;;;19.98;12.78;;;;;;;15.19;56.46;99338.75;1808921;77;21212;-75
2021/04/11 12:57:22;;;;;;;16.40;10.98;;;;;;;15.12;56.14;99333.56;1806500;78;21001;-75
2021/04/11 13:00:12;;;;;;;16.73;11.95;;;;;;;15.06;56.23;99331.37;1802520;77;21080;-74